x

Ne St Martin - 330 Nm Ne St Martin Is (41044) Wave Buoy

12:50pm - Wed 1st Oct 2014 All times are UTC.

  • Sig Wave height 3.0ft
  • Swell Direction
  • Peak Period 8s
  • Average Period 6s
  • Wind
    7mph, 9mph gusts
  • Sea Temp 85°f
  • Air Temp 83°f
  • Sea Pressure 1018.6mb

More Historic Weather Station data

Upgrade to MSW Pro to gain access to the past 30 days of data for over 8000 Wavebouys and Weather Stations around the globe.

Join Pro

Comparision Forecast

View Surf forecast
   
Wed 10/01 12:50pm 3ft 8s 6s 7 9 mph 1018.6mb 85f 83f
11:50am 2.5ft 9s 6s 9 11 mph 1018.3mb 85f 83f
10:50am 2.5ft 9s 6s 7 9 mph 1017.8mb 85f 83f
9:50am 2.5ft 9s 6s 9 11 mph 1017.2mb 85f 83f
8:50am 2.5ft 10s 6s 9 11 mph 1016.7mb 85f 83f
7:50am 2.5ft 9s 6s 7 9 mph 1016.6mb 85f 82f
6:50am 2.5ft 9s 6s 7
mph
1016.9mb 85f 82f
5:50am 2.5ft 8s 6s 4 7 mph 1017.1mb 85f 82f
4:50am 3ft 8s 6s 4 7 mph 1017.5mb 85f 83f
3:50am 3ft 9s 6s 4 7 mph 1017.8mb 85f 83f
2:50am 3ft 9s 6s 7 9 mph 1017.9mb 85f 83f
1:50am 3ft 12s 6s 7 9 mph 1018.1mb 85f 83f
12:50am 3ft 12s 6s 7 9 mph 1018.1mb 85f 83f
Tue 09/30 11:50pm 2.5ft 12s 6s 4 7 mph 1018.1mb 85f 83f
10:50pm 3ft 8s 6s 7 9 mph 1017.3mb 85f 83f
9:50pm 3ft 7s 6s 9 11 mph 1016.8mb 85f 83f
8:50pm 3ft 13s 5s 7 9 mph 1016.2mb 85f 83f
7:50pm 3ft 12s 5s 9 11 mph 1015.7mb 85f 83f
6:50pm 3ft 12s 5s 11
mph
1015.7mb 85f 83f
5:50pm 2.5ft 12s 5s 11 13 mph 1015.7mb 85f 83f
4:50pm 3ft 8s 5s 9 13 mph 1016.4mb 85f 83f
3:50pm 3ft 8s 5s 11 13 mph 1017mb 85f 83f
2:50pm 3ft 10s 5s 13 16 mph 1017.6mb 85f 83f
1:50pm 3.5ft 8s 5s 13 16 mph 1017.7mb 85f 83f
12:50pm 3.5ft 7s 5s 13 16 mph 1017.4mb 85f 83f
11:50am 3ft 8s 5s 13 16 mph 1017.2mb 85f 83f
10:50am 3ft 8s 5s 13 16 mph 1016.6mb 85f 82f
9:50am 3ft 8s 5s 13 16 mph 1016mb 84f 83f
8:50am 3.5ft 8s 5s 13 16 mph 1015.6mb 84f 83f
7:50am 3ft 8s 5s 11 13 mph 1015.3mb 84f 82f
6:50am 3ft 8s 5s 16 18 mph 1014.6mb 84f 82f
5:50am 3ft 8s 5s 16 18 mph 1014.4mb 84f 82f
4:50am 3ft 8s 6s 13
mph
1015.5mb 84f 81f
3:50am 3ft 8s 6s 9 11 mph 1016.5mb 84f 81f
2:50am 3ft 8s 6s 11 13 mph 1017.5mb 84f 78f
1:50am 3ft 9s 6s 7
mph
1018mb 85f 81f
12:50am 3ft 8s 6s 7 11 mph 1017.9mb 85f 82f
Mon 09/29 11:50pm 3.5ft 8s 6s 4 7 mph 1017.2mb 85f 81f
10:50pm 3.5ft 8s 7s 7 9 mph 1016.7mb 85f 82f
9:50pm 3.5ft 7s 7s 4 7 mph 1016.4mb 85f 82f
8:50pm 3.5ft 8s 6s 4 7 mph 1015.8mb 85f 82f
7:50pm 3.5ft 8s 6s 9 11 mph 1015.5mb 85f 82f
6:50pm 3.5ft 7s 6s 11
mph
1015.3mb 85f 82f
5:50pm 3.5ft 8s 6s 7 11 mph 1015.5mb 85f 83f
4:50pm 4ft 8s 6s 9 11 mph 1015.9mb 85f 83f
3:50pm 4ft 7s 6s 7 11 mph 1016.3mb 85f 83f
2:50pm 4ft 8s 6s 11 13 mph 1016.1mb 85f 83f
1:50pm 4.5ft 8s 7s 11 13 mph 1016.5mb 84f 83f
12:50pm 3.5ft 8s 7s 11 13 mph 1016.4mb 84f 83f
11:50am 3.5ft 8s 7s 9 11 mph 1016mb 84f 82f
10:50am 4ft 8s 8s 7 9 mph 1015.9mb 84f 82f
9:50am 3ft 8s 7s 4 7 mph 1015.7mb 84f 82f
8:50am 3.5ft 8s 8s 4 7 mph 1015.1mb 84f 82f
7:50am 3.5ft 8s 7s 4 7 mph 1014.6mb 84f 81f
6:50am 3.5ft 8s 7s 9 11 mph 1014.9mb 84f 78f
5:50am 3.5ft 8s 7s 4 7 mph 1015.3mb 84f 82f
4:50am 3.5ft 8s 7s 4
mph
1015.6mb 84f 82f
3:50am 3.5ft 8s 7s 4 7 mph 1016.2mb 84f 82f
2:50am 4ft 8s 7s 7 9 mph 1016.3mb 84f 82f
1:50am 4ft 8s 7s 9 11 mph 1016.5mb 84f 82f
12:50am 4ft 8s 7s 4 7 mph 1016.5mb 84f 83f
Sun 09/28 11:50pm 4ft 9s 7s 4 7 mph 1016.2mb 85f 83f
10:50pm 4.5ft 9s 7s 4 7 mph 1015.5mb 85f 83f
9:50pm 4ft 9s 7s 2 4 mph 1015.2mb 85f 83f
8:50pm 4ft 9s 7s 2 4 mph 1014.9mb 86f 83f
7:50pm 4.5ft 9s 7s  -  2 mph 1014.8mb 88f 84f
6:50pm 4.5ft 9s 7s  -  mph 1014.9mb 88f 84f
5:50pm 4.5ft 9s 7s  -  mph 1015.1mb 88f 84f
4:50pm 4.5ft 9s 7s  -  4 mph 1015.5mb 87f 83f
2:50pm 4.5ft 8s 7s  -  2 mph 1016.6mb 86f 83f
1:50pm 4.5ft 9s 7s  -  mph 1016.7mb 85f 83f
12:50pm 5ft 8s 7s  -  mph 1016.5mb 85f 83f
11:50am 5ft 9s 8s 2
mph
1016mb 84f 83f
10:50am 4.5ft 9s 8s 2 4 mph 1015.5mb 84f 82f
9:50am 5ft 9s 8s 2 4 mph 1014.9mb 83f 81f
8:50am 4.5ft 8s 8s 2 4 mph 1014.3mb 84f 81f
7:50am 5ft 8s 8s 2 4 mph 1014.1mb 84f 81f
6:50am 4.5ft 9s 8s 2
mph
1014.3mb 84f 81f
5:50am 4.5ft 8s 8s 2 4 mph 1015mb 84f 81f
4:50am 4.5ft 9s 7s  -  2 mph 1015.5mb 84f 82f
3:50am 4.5ft 9s 8s 2 4 mph 1015.8mb 84f 82f
2:50am 5ft 9s 7s 2
mph
1016.1mb 84f 82f
1:50am 4.5ft 9s 7s 2 4 mph 1016.3mb 84f 82f
12:50am 4.5ft 8s 7s  -  4 mph 1016.2mb 84f 82f
Sat 09/27 11:50pm 4.5ft 9s 7s 2 4 mph 1015.8mb 84f 82f
10:50pm 4.5ft 8s 7s 2
mph
1015.2mb 84f 82f
9:50pm 5ft 9s 7s  -  2 mph 1014.9mb 84f 82f
8:50pm 4.5ft 9s 7s 2 4 mph 1014.7mb 84f 82f
7:50pm 4.5ft 9s 7s 4
mph
1014.6mb 85f 83f
6:50pm 4.5ft 8s 7s 7 9 mph 1014.6mb 85f 82f
5:50pm 4.5ft 9s 7s 2 4 mph 1015.1mb 86f 83f
4:50pm 4.5ft 9s 7s 2 4 mph 1015.5mb 85f 83f
3:50pm 4.5ft 9s 7s 4 7 mph 1015.9mb 85f 83f
2:50pm 4.5ft 10s 7s 4 7 mph 1016.3mb 84f 83f